Terminal Aerodrome Forecast
Issued by NWS

Home | Current Version | Previous Version | Text Only | Print | Product List | Glossary On
Versions: 1 2 3 4 5 6 7 8 9 10 11 12 13 14 15 16 17 18 19 20 21 22 23 24 25 26 27 28
000
FTUS44 KFWD 221100
TAFGKY
TAF
KGKY 221133Z 2212/2312 04010KT P6SM SCT040 BKN070
      TEMPO 2212/2214 BKN035
     FM230100 07005KT P6SM FEW070 BKN300
     FM231100 11006KT P6SM FEW250=

USA.gov is the U.S. government's official web portal to all federal, state and local government web resources and services.